METAR AND TAF INFORMATION
METAR FOR KMEM
KMEM 230254Z 00000KT 10SM BKN100 BKN150 27/22 A3001 RMK AO2 SLP159 T02670217 51014
KMEM 230154Z 28004KT 10SM SCT150 SCT200 BKN250 27/21 A3000 RMK AO2 SLP156 T02670206
KMEM 230054Z 28004KT 10SM SCT180 BKN250 28/19 A2998 RMK AO2 SLP148 T02780194
KMEM 230300Z 2303/2406 28004KT P6SM BKN100
FM231200 15004KT 5SM SHRA BR OVC010
FM231800 16007KT P6SM VCSH OVC025
PROB30 2319/2321 4SM TSRA BR OVC015CB
FM240100 16003KT P6SM SCT060

 AIRPORT MAP

 RUNWAY INFORMATION
Runway 09 Runway length 8946 ft Runway width 150 ft
Runway elevation 253 ft Runway displaced threshold 0 ft Runway heading 92
Runway 27 Runway length 8946 ft Runway width 150 ft
Runway elevation 292 ft Runway displaced threshold 0 ft Runway heading 272
Runway 18C Runway length 11120 ft Runway width 150 ft
Runway elevation 271 ft Runway displaced threshold 0 ft Runway heading 179
Runway 36C Runway length 11120 ft Runway width 150 ft
Runway elevation 341 ft Runway displaced threshold 0 ft Runway heading 359
Runway 18L Runway length 9000 ft Runway width 150 ft
Runway elevation 278 ft Runway displaced threshold 0 ft Runway heading 179
Runway 36R Runway length 9000 ft Runway width 150 ft
Runway elevation 335 ft Runway displaced threshold 0 ft Runway heading 359
Runway 18R Runway length 9320 ft Runway width 150 ft
Runway elevation 288 ft Runway displaced threshold 0 ft Runway heading 179
Runway 36L Runway length 9320 ft Runway width 150 ft
Runway elevation 321 ft Runway displaced threshold 0 ft Runway heading 359

 AIRPORT FREQUENCIES
Type APP Name APP Frequency 119.1 MHZ
Type APP Name APP Frequency 33.83 MHZ
Type ATIS Name ATIS Frequency 127.75 MHZ
Type CLD Name CLNC DEL Frequency 125.2 MHZ
Type DEP Name DEP Frequency 124.15 MHZ
Type GND Name GND Frequency 121.65 MHZ
Type POST Name ANG COMD P Frequency 138.95 MHZ
Type RDO Name JACKSON RD Frequency 122.2 MHZ
Type TWR Name TWR Frequency 118.3 MHZ
Type UNIC Name UNICOM Frequency 122.95 MHZ

 AIRPORT NEAR NAVIGATION AIDS
Type NDB Name Elvis Frequency 287 KHZ
Type VORTAC Name Memphis Frequency 117500 KHZ

-